createdAt,value
2023-03-30T00:02:41.574Z,6.80
2023-03-30T00:05:20.924Z,7.00
2023-03-30T00:07:53.668Z,7.00
2023-03-30T00:10:25.154Z,5.60
2023-03-30T00:13:10.911Z,4.20
2023-03-30T00:15:43.485Z,5.00
2023-03-30T00:18:18.114Z,5.90
2023-03-30T00:20:53.740Z,6.20
2023-03-30T00:23:28.075Z,6.20
2023-03-30T00:25:58.180Z,6.60
2023-03-30T00:28:38.696Z,5.70
2023-03-30T00:31:20.642Z,5.40
2023-03-30T00:36:23.075Z,5.30
2023-03-30T00:39:04.104Z,5.60
2023-03-30T00:41:38.063Z,5.20
2023-03-30T00:44:47.253Z,6.10
2023-03-30T00:47:18.032Z,5.50
2023-03-30T00:50:01.851Z,5.50
2023-03-30T00:52:33.310Z,5.90
2023-03-30T00:55:07.899Z,4.50
2023-03-30T01:00:13.352Z,5.40
2023-03-30T01:02:50.946Z,5.10
2023-03-30T01:05:25.947Z,6.10
2023-03-30T01:07:58.188Z,4.70
2023-03-30T01:10:27.796Z,6.20
2023-03-30T01:12:57.769Z,6.40
2023-03-30T01:15:32.400Z,6.60
2023-03-30T01:21:24.560Z,4.10
2023-03-30T01:24:36.331Z,5.40
2023-03-30T01:27:50.248Z,6.30
2023-03-30T01:31:22.037Z,4.40
2023-03-30T01:33:54.493Z,4.40
2023-03-30T01:36:44.986Z,6.30
2023-03-30T01:39:45.925Z,5.30
2023-03-30T01:43:03.025Z,7.20
2023-03-30T01:46:12.290Z,4.20
2023-03-30T01:49:07.740Z,4.30
2023-03-30T01:51:47.363Z,6.20
2023-03-30T01:54:30.051Z,6.50
2023-03-30T01:57:34.776Z,4.80
2023-03-30T02:00:14.608Z,5.30
2023-03-30T02:02:52.785Z,5.90
2023-03-30T02:05:25.074Z,5.10
2023-03-30T02:08:03.308Z,6.40
2023-03-30T02:10:36.414Z,5.80
2023-03-30T02:13:07.878Z,6.10
2023-03-30T02:15:53.670Z,6.30
2023-03-30T02:18:25.046Z,6.80
2023-03-30T02:20:59.088Z,5.00
2023-03-30T02:23:35.733Z,6.20
2023-03-30T02:26:08.206Z,5.00
2023-03-30T02:28:37.727Z,6.90
2023-03-30T02:31:15.020Z,7.70
2023-03-30T02:34:18.866Z,7.30
2023-03-30T02:37:22.595Z,5.80
2023-03-30T02:40:13.091Z,5.30
2023-03-30T02:43:12.814Z,5.80
2023-03-30T02:46:15.476Z,6.00
2023-03-30T02:49:09.278Z,5.60
2023-03-30T02:51:44.956Z,6.30
2023-03-30T02:54:48.761Z,6.30
2023-03-30T02:57:39.507Z,7.10
2023-03-30T03:01:06.587Z,5.80
2023-03-30T03:03:48.494Z,4.40
2023-03-30T03:06:20.504Z,5.30
2023-03-30T03:08:56.359Z,5.70
2023-03-30T03:11:28.755Z,6.40
2023-03-30T03:13:58.259Z,6.80
2023-03-30T03:16:28.335Z,7.20
2023-03-30T03:19:17.756Z,7.20
2023-03-30T03:21:49.773Z,7.00
2023-03-30T03:24:19.499Z,9.10
2023-03-30T03:27:08.950Z,7.70
2023-03-30T03:29:53.533Z,4.60
2023-03-30T03:32:25.014Z,6.30
2023-03-30T03:34:54.822Z,8.10
2023-03-30T03:37:25.274Z,8.10
2023-03-30T03:39:55.248Z,6.90
2023-03-30T03:42:24.941Z,3.80
2023-03-30T03:45:27.798Z,6.80
2023-03-30T03:47:59.522Z,6.80
2023-03-30T03:50:44.096Z,7.10
2023-03-30T03:53:14.159Z,4.70
2023-03-30T03:55:45.736Z,2.20
2023-03-30T03:58:16.992Z,4.60
2023-03-30T04:00:47.925Z,5.00
2023-03-30T04:03:17.632Z,5.80
2023-03-30T04:05:47.057Z,9.60
2023-03-30T04:08:18.170Z,12.90
2023-03-30T04:10:48.135Z,14.50
2023-03-30T04:13:26.779Z,9.10
2023-03-30T04:16:16.021Z,12.60
2023-03-30T04:19:09.217Z,9.40
2023-03-30T04:21:55.683Z,9.50
2023-03-30T04:24:37.148Z,13.30
2023-03-30T04:28:05.302Z,9.60
2023-03-30T04:31:03.451Z,11.60
2023-03-30T04:34:22.717Z,8.40
2023-03-30T04:37:34.549Z,7.50
2023-03-30T04:40:53.426Z,5.70
2023-03-30T04:43:40.536Z,5.80
2023-03-30T04:46:34.621Z,5.30
2023-03-30T04:49:14.683Z,5.40
2023-03-30T04:54:58.077Z,11.50
2023-03-30T04:57:35.696Z,9.70
2023-03-30T05:01:00.213Z,7.60
2023-03-30T05:03:49.215Z,8.20
2023-03-30T05:06:50.206Z,10.80
2023-03-30T05:09:30.472Z,7.70
2023-03-30T05:12:13.498Z,9.70
2023-03-30T05:15:32.317Z,4.70
2023-03-30T05:18:20.002Z,7.70
2023-03-30T05:21:31.720Z,9.10
2023-03-30T05:24:50.353Z,7.50
2023-03-30T05:27:38.423Z,5.70
2023-03-30T05:30:20.558Z,5.30
2023-03-30T05:33:31.677Z,8.40
2023-03-30T05:36:46.751Z,7.00
2023-03-30T05:39:31.510Z,6.70
2023-03-30T05:42:12.851Z,8.90
2023-03-30T05:44:56.960Z,7.30
2023-03-30T05:48:10.741Z,4.30
2023-03-30T05:50:49.504Z,9.40
2023-03-30T05:53:35.059Z,8.40
2023-03-30T05:56:23.707Z,8.50
2023-03-30T05:59:19.637Z,9.30
2023-03-30T06:02:39.459Z,5.60
2023-03-30T06:05:15.809Z,9.80
2023-03-30T06:07:51.900Z,6.20
2023-03-30T06:10:23.928Z,11.00
2023-03-30T06:12:53.875Z,8.70
2023-03-30T06:16:04.336Z,4.80
2023-03-30T06:18:34.490Z,7.50
2023-03-30T06:21:08.484Z,7.90
2023-03-30T06:24:03.726Z,7.60
2023-03-30T06:26:38.097Z,10.20
2023-03-30T06:29:11.197Z,6.50
2023-03-30T06:31:43.180Z,7.00
2023-03-30T06:34:32.228Z,5.30
2023-03-30T06:37:03.074Z,5.80
2023-03-30T06:39:33.500Z,9.90
2023-03-30T06:42:03.371Z,6.70
2023-03-30T06:44:52.190Z,8.90
2023-03-30T06:47:25.304Z,8.30
2023-03-30T06:49:55.235Z,8.10
2023-03-30T06:52:39.863Z,7.10
2023-03-30T06:55:11.438Z,9.10
2023-03-30T06:57:41.252Z,8.30
2023-03-30T07:00:13.754Z,9.20
2023-03-30T07:03:04.422Z,10.80
2023-03-30T07:05:53.836Z,7.00
2023-03-30T07:08:40.983Z,8.60
2023-03-30T07:11:15.634Z,9.90
2023-03-30T07:13:58.540Z,9.40
2023-03-30T07:16:28.708Z,9.10
2023-03-30T07:18:58.202Z,10.30
2023-03-30T07:21:28.376Z,9.80
2023-03-30T07:24:01.341Z,11.00
2023-03-30T07:26:36.006Z,9.10
2023-03-30T07:29:10.751Z,9.70
2023-03-30T07:31:44.038Z,8.90
2023-03-30T07:34:17.709Z,9.00
2023-03-30T07:36:51.634Z,7.90
2023-03-30T07:39:22.130Z,9.30
2023-03-30T07:41:53.190Z,8.10
2023-03-30T07:44:22.809Z,9.80
2023-03-30T07:46:52.615Z,11.00
2023-03-30T07:49:26.532Z,8.50
2023-03-30T07:51:57.378Z,7.80
2023-03-30T07:54:32.675Z,8.60
2023-03-30T07:57:08.992Z,7.90
2023-03-30T07:59:39.250Z,6.70
2023-03-30T08:02:29.531Z,6.70
2023-03-30T08:05:01.078Z,7.40
2023-03-30T08:07:37.783Z,6.70
2023-03-30T08:10:21.270Z,5.60
2023-03-30T08:12:51.131Z,6.90
2023-03-30T08:15:20.887Z,5.30
2023-03-30T08:17:50.702Z,5.50
2023-03-30T08:20:20.283Z,5.90
2023-03-30T08:22:50.034Z,5.60
2023-03-30T08:25:19.734Z,5.00
2023-03-30T08:27:52.528Z,5.20
2023-03-30T08:30:22.905Z,4.90
2023-03-30T08:32:53.428Z,4.70
2023-03-30T08:35:23.845Z,7.00
2023-03-30T08:37:55.604Z,5.20
2023-03-30T08:40:25.443Z,4.40
2023-03-30T08:43:21.139Z,5.60
2023-03-30T08:45:51.999Z,4.30
2023-03-30T08:48:26.195Z,4.80
2023-03-30T08:51:02.500Z,2.60
2023-03-30T08:53:37.481Z,3.60
2023-03-30T08:56:29.728Z,2.80
2023-03-30T08:59:25.781Z,2.10
2023-03-30T09:02:30.456Z,3.10
2023-03-30T09:05:25.585Z,2.90
2023-03-30T09:08:06.995Z,3.60
2023-03-30T09:10:41.553Z,3.00
2023-03-30T09:13:18.969Z,3.60
2023-03-30T09:15:57.337Z,2.90
2023-03-30T09:18:39.592Z,3.30
2023-03-30T09:21:14.825Z,2.80
2023-03-30T09:23:44.843Z,2.60
2023-03-30T09:26:45.502Z,3.10
2023-03-30T09:29:26.292Z,2.60
2023-03-30T09:32:40.910Z,2.70
2023-03-30T09:35:25.741Z,1.90
2023-03-30T09:37:55.328Z,2.60
2023-03-30T09:40:51.946Z,2.20
2023-03-30T09:43:46.961Z,2.60
2023-03-30T09:46:17.381Z,2.80
2023-03-30T09:49:17.569Z,3.00
2023-03-30T09:52:03.216Z,2.60
2023-03-30T09:54:42.383Z,2.60
2023-03-30T09:57:31.306Z,2.90
2023-03-30T10:00:22.832Z,3.90
2023-03-30T10:03:07.424Z,3.00
2023-03-30T10:05:39.118Z,3.20
2023-03-30T10:08:52.570Z,3.50
2023-03-30T10:11:49.446Z,2.60
2023-03-30T10:14:34.599Z,3.60
2023-03-30T10:17:06.081Z,2.90
2023-03-30T10:19:38.979Z,2.60
2023-03-30T10:22:19.121Z,9.20
2023-03-30T10:24:55.462Z,2.60
2023-03-30T10:27:38.508Z,3.20
2023-03-30T10:30:16.222Z,2.60
2023-03-30T10:32:47.267Z,2.70
2023-03-30T10:35:27.522Z,2.60
2023-03-30T10:38:00.685Z,2.10
2023-03-30T10:40:41.005Z,2.40
2023-03-30T10:43:26.525Z,2.10
2023-03-30T10:46:09.043Z,2.20
2023-03-30T10:49:12.747Z,2.40
2023-03-30T10:52:01.544Z,2.50
2023-03-30T10:54:49.668Z,2.10
2023-03-30T10:57:32.980Z,2.10
2023-03-30T11:00:43.501Z,2.20
2023-03-30T11:03:29.577Z,2.70
2023-03-30T11:06:13.454Z,2.50
2023-03-30T11:08:48.158Z,3.00
2023-03-30T11:11:29.295Z,3.70
2023-03-30T11:14:03.223Z,2.70
2023-03-30T11:16:54.247Z,2.60
2023-03-30T11:19:37.140Z,2.60
2023-03-30T11:22:41.820Z,2.50
2023-03-30T11:25:31.724Z,2.40
2023-03-30T11:28:39.530Z,2.50
2023-03-30T11:31:35.631Z,2.60
2023-03-30T11:34:23.927Z,2.70
2023-03-30T11:37:33.087Z,3.10
2023-03-30T11:40:27.423Z,2.60
2023-03-30T11:42:57.019Z,2.60
2023-03-30T11:45:55.371Z,2.60
2023-03-30T11:48:39.678Z,3.20
2023-03-30T11:51:39.173Z,3.10
2023-03-30T11:54:32.478Z,2.20
2023-03-30T11:57:50.965Z,2.80
2023-03-30T12:01:06.432Z,2.80
2023-03-30T12:03:45.270Z,2.20
2023-03-30T12:06:31.911Z,2.70
2023-03-30T12:09:36.678Z,2.50
2023-03-30T12:12:32.872Z,2.70
2023-03-30T12:15:46.431Z,3.20
2023-03-30T12:19:23.165Z,3.00
2023-03-30T12:22:08.232Z,2.60
2023-03-30T12:24:49.748Z,2.20
2023-03-30T12:27:19.264Z,2.80
2023-03-30T12:32:30.560Z,2.70
2023-03-30T12:35:00.228Z,3.50
2023-03-30T12:37:40.583Z,3.40
2023-03-30T12:40:22.839Z,4.10
2023-03-30T12:43:33.862Z,3.80
2023-03-30T12:46:28.590Z,3.10
2023-03-30T12:49:19.304Z,3.10
2023-03-30T12:52:10.819Z,3.30
2023-03-30T12:55:10.125Z,2.60
2023-03-30T12:58:08.385Z,3.10
2023-03-30T13:00:41.247Z,3.30
2023-03-30T13:03:53.088Z,3.00
2023-03-30T13:06:30.561Z,3.10
2023-03-30T13:09:11.851Z,2.90
2023-03-30T13:12:01.629Z,2.70
2023-03-30T13:14:31.158Z,3.30
2023-03-30T13:17:03.606Z,3.20
2023-03-30T13:19:33.049Z,3.30
2023-03-30T13:22:13.978Z,3.90
2023-03-30T13:24:53.948Z,3.10
2023-03-30T13:27:34.365Z,4.00
2023-03-30T13:30:13.383Z,3.90
2023-03-30T13:32:45.791Z,2.70
2023-03-30T13:35:46.312Z,5.70
2023-03-30T13:38:34.642Z,3.80
2023-03-30T13:41:31.478Z,4.60
2023-03-30T13:44:28.855Z,5.50
2023-03-30T13:47:19.784Z,3.40
2023-03-30T13:50:03.598Z,4.20
2023-03-30T13:52:44.332Z,4.20
2023-03-30T13:55:35.776Z,2.90
2023-03-30T13:58:16.473Z,3.60
2023-03-30T14:00:57.213Z,4.60
2023-03-30T14:03:27.455Z,3.90
2023-03-30T14:06:21.097Z,3.40
2023-03-30T14:09:14.593Z,3.40
2023-03-30T14:11:45.753Z,4.00
2023-03-30T14:14:43.989Z,3.80
2023-03-30T14:17:22.752Z,4.90
2023-03-30T14:20:04.220Z,4.30
2023-03-30T14:22:41.254Z,4.20
2023-03-30T14:25:42.364Z,4.40
2023-03-30T14:28:20.641Z,3.90
2023-03-30T14:31:08.915Z,4.30
2023-03-30T14:33:41.216Z,4.20
2023-03-30T14:36:16.351Z,3.90
2023-03-30T14:38:52.235Z,5.10
2023-03-30T14:41:27.874Z,4.60
2023-03-30T14:44:04.114Z,4.10
2023-03-30T14:46:49.760Z,3.50
2023-03-30T14:49:31.632Z,3.90
2023-03-30T14:52:08.169Z,4.00
2023-03-30T14:54:43.134Z,4.80
2023-03-30T14:57:19.820Z,3.70
2023-03-30T15:00:12.813Z,3.10
2023-03-30T15:02:54.976Z,3.50
2023-03-30T15:05:34.262Z,2.70
2023-03-30T15:08:06.124Z,3.20
2023-03-30T15:10:53.666Z,3.20
2023-03-30T15:13:49.021Z,4.10
2023-03-30T15:16:29.815Z,3.10
2023-03-30T15:19:11.768Z,2.90
2023-03-30T15:21:44.961Z,3.40
2023-03-30T15:24:21.728Z,3.30
2023-03-30T15:26:54.389Z,1.50
2023-03-30T15:29:25.424Z,3.00
2023-03-30T15:32:12.224Z,2.50
2023-03-30T15:38:11.136Z,2.00
2023-03-30T15:40:48.433Z,2.80
2023-03-30T15:43:25.874Z,2.50
2023-03-30T15:46:16.141Z,2.10
2023-03-30T15:48:58.484Z,2.60
2023-03-30T15:51:40.199Z,3.30
2023-03-30T15:54:22.698Z,3.20
2023-03-30T15:57:21.856Z,5.80
2023-03-30T15:59:56.428Z,2.60
2023-03-30T16:02:31.935Z,3.00
2023-03-30T16:05:08.445Z,3.00
2023-03-30T16:07:43.335Z,2.30
2023-03-30T16:10:28.780Z,2.80
2023-03-30T16:13:02.146Z,3.10
2023-03-30T16:15:36.087Z,6.20
2023-03-30T16:18:12.729Z,6.00
2023-03-30T16:20:42.470Z,4.70
2023-03-30T16:23:11.843Z,3.90
2023-03-30T16:25:45.377Z,4.80
2023-03-30T16:30:50.473Z,4.70
2023-03-30T16:33:20.088Z,4.40
2023-03-30T16:35:49.412Z,2.90
2023-03-30T16:38:18.966Z,2.70
2023-03-30T16:40:56.105Z,3.60
2023-03-30T16:43:27.303Z,3.80
2023-03-30T16:45:56.807Z,5.50
2023-03-30T16:48:27.119Z,4.60
2023-03-30T16:50:59.433Z,4.80
2023-03-30T16:53:28.900Z,3.90
2023-03-30T16:55:58.185Z,3.80
2023-03-30T16:58:27.607Z,5.30
2023-03-30T17:01:03.344Z,7.10
2023-03-30T17:03:33.976Z,6.50
2023-03-30T17:06:04.370Z,6.50
2023-03-30T17:08:33.764Z,7.40
2023-03-30T17:11:08.030Z,6.90
2023-03-30T17:13:37.539Z,7.50
2023-03-30T17:16:08.377Z,7.80
2023-03-30T17:18:37.677Z,9.40
2023-03-30T17:21:09.572Z,8.80
2023-03-30T17:23:38.945Z,8.90
2023-03-30T17:26:12.054Z,7.10
2023-03-30T17:28:42.365Z,6.70
2023-03-30T17:31:22.553Z,6.00
2023-03-30T17:36:24.387Z,8.60
2023-03-30T17:38:53.761Z,8.50
2023-03-30T17:41:23.091Z,5.10
2023-03-30T17:43:52.388Z,4.80
2023-03-30T17:46:21.949Z,4.50
2023-03-30T17:48:51.725Z,4.00
2023-03-30T17:51:21.258Z,4.10
2023-03-30T17:53:50.697Z,6.20
2023-03-30T17:56:20.073Z,10.20
2023-03-30T17:58:49.812Z,9.60
2023-03-30T18:01:19.231Z,8.90
2023-03-30T18:03:48.743Z,8.50
2023-03-30T18:06:18.383Z,7.60
2023-03-30T18:08:48.693Z,6.60
2023-03-30T18:11:18.053Z,6.30
2023-03-30T18:13:47.488Z,7.30
2023-03-30T18:16:19.133Z,8.20
2023-03-30T18:18:48.655Z,12.00
2023-03-30T18:21:17.974Z,10.90
2023-03-30T18:23:49.816Z,11.30
2023-03-30T18:26:22.649Z,14.40
2023-03-30T18:28:51.956Z,12.50
2023-03-30T18:31:24.038Z,10.00
2023-03-30T18:33:53.822Z,10.50
2023-03-30T18:36:23.445Z,10.00
2023-03-30T18:38:54.840Z,9.10
2023-03-30T18:41:24.243Z,7.10
2023-03-30T18:43:53.649Z,5.50
2023-03-30T18:46:23.148Z,6.30
2023-03-30T18:48:52.414Z,7.10
2023-03-30T18:51:22.034Z,5.20
2023-03-30T18:53:51.492Z,4.90
2023-03-30T18:56:20.900Z,4.90
2023-03-30T18:58:50.601Z,3.70
2023-03-30T19:01:19.998Z,3.60
2023-03-30T19:03:49.661Z,2.50
2023-03-30T19:06:25.090Z,2.60
2023-03-30T19:08:55.284Z,3.10
2023-03-30T19:11:26.924Z,3.00
2023-03-30T19:13:56.662Z,3.50
2023-03-30T19:16:26.198Z,3.60
2023-03-30T19:18:55.576Z,4.30
2023-03-30T19:21:25.198Z,4.00
2023-03-30T19:23:56.620Z,5.30
2023-03-30T19:26:26.315Z,5.40
2023-03-30T19:28:55.893Z,6.30
2023-03-30T19:31:25.218Z,5.90
2023-03-30T19:33:55.354Z,5.80
2023-03-30T19:36:25.342Z,5.30
2023-03-30T19:38:54.807Z,5.30
2023-03-30T19:41:24.180Z,5.70
2023-03-30T19:43:53.582Z,7.10
2023-03-30T19:46:23.044Z,6.40
2023-03-30T19:48:52.339Z,5.80
2023-03-30T19:51:21.798Z,4.10
2023-03-30T19:53:51.186Z,4.40
2023-03-30T19:56:21.269Z,3.00
2023-03-30T19:58:51.354Z,3.10
2023-03-30T20:01:20.769Z,2.60
2023-03-30T20:03:50.123Z,4.00
2023-03-30T20:06:19.661Z,3.40
2023-03-30T20:08:49.074Z,3.40
2023-03-30T20:11:18.602Z,3.40
2023-03-30T20:13:48.672Z,2.90
2023-03-30T20:16:21.350Z,3.30
2023-03-30T20:18:54.016Z,2.70
2023-03-30T20:21:26.226Z,3.40
2023-03-30T20:23:58.704Z,4.20
2023-03-30T20:26:29.318Z,3.60
2023-03-30T20:28:59.697Z,3.30
2023-03-30T20:31:30.042Z,3.50
2023-03-30T20:33:59.983Z,2.80
2023-03-30T20:36:29.814Z,2.80
2023-03-30T20:38:59.690Z,2.30
2023-03-30T20:41:38.063Z,2.30
2023-03-30T20:44:11.530Z,2.60
2023-03-30T20:46:43.593Z,2.50
2023-03-30T20:49:13.123Z,2.90
2023-03-30T20:51:45.176Z,3.30
2023-03-30T20:54:16.211Z,3.20
2023-03-30T20:56:46.039Z,3.00
2023-03-30T20:59:15.492Z,3.50
2023-03-30T21:01:47.311Z,2.70
2023-03-30T21:04:16.907Z,2.70
2023-03-30T21:06:46.979Z,3.00
2023-03-30T21:09:17.873Z,3.20
2023-03-30T21:11:47.258Z,3.10
2023-03-30T21:14:16.649Z,3.00
2023-03-30T21:16:46.562Z,3.10
2023-03-30T21:19:15.988Z,2.60
2023-03-30T21:21:45.533Z,2.70
2023-03-30T21:24:16.968Z,2.90
2023-03-30T21:26:46.243Z,2.50
2023-03-30T21:29:15.487Z,3.10
2023-03-30T21:31:45.194Z,2.40
2023-03-30T21:34:15.860Z,2.20
2023-03-30T21:36:45.413Z,2.40
2023-03-30T21:39:14.949Z,2.70
2023-03-30T21:41:45.431Z,3.50
2023-03-30T21:44:15.115Z,2.60
2023-03-30T21:46:44.477Z,3.30
2023-03-30T21:49:13.948Z,3.00
2023-03-30T21:51:43.318Z,2.40
2023-03-30T21:54:14.075Z,2.30
2023-03-30T21:56:43.654Z,2.70
2023-03-30T21:59:13.296Z,2.50
2023-03-30T22:01:42.737Z,2.40
2023-03-30T22:04:12.124Z,2.70
2023-03-30T22:06:41.410Z,3.20
2023-03-30T22:09:10.845Z,2.60
2023-03-30T22:11:41.319Z,2.80
2023-03-30T22:14:10.835Z,3.00
2023-03-30T22:16:40.391Z,2.40
2023-03-30T22:19:09.866Z,2.50
2023-03-30T22:21:39.524Z,3.30
2023-03-30T22:24:11.628Z,2.80
2023-03-30T22:26:41.609Z,2.50
2023-03-30T22:29:11.304Z,2.10
2023-03-30T22:31:41.674Z,2.20
2023-03-30T22:34:11.090Z,2.30
2023-03-30T22:36:41.211Z,2.00
2023-03-30T22:39:10.523Z,2.50
2023-03-30T22:41:39.950Z,1.90
2023-03-30T22:44:09.752Z,1.90
2023-03-30T22:46:39.160Z,1.90
2023-03-30T22:49:08.536Z,2.10
2023-03-30T22:51:38.379Z,2.10
2023-03-30T22:54:08.222Z,2.20
2023-03-30T22:56:37.776Z,2.30
2023-03-30T22:59:07.192Z,3.30
2023-03-30T23:01:37.354Z,2.40
2023-03-30T23:04:07.658Z,2.80
2023-03-30T23:06:37.327Z,3.30
2023-03-30T23:09:06.838Z,2.80
2023-03-30T23:11:36.172Z,3.10
2023-03-30T23:14:10.085Z,2.70
2023-03-30T23:16:40.445Z,2.60
2023-03-30T23:19:11.016Z,2.10
2023-03-30T23:21:41.201Z,2.80
2023-03-30T23:24:11.484Z,2.30
2023-03-30T23:26:41.382Z,2.10
2023-03-30T23:29:11.429Z,2.30
2023-03-30T23:31:40.848Z,1.90
2023-03-30T23:34:12.586Z,1.80
2023-03-30T23:36:43.416Z,1.70
2023-03-30T23:39:12.988Z,1.90
2023-03-30T23:41:43.317Z,1.80
2023-03-30T23:44:12.623Z,1.80
2023-03-30T23:46:41.994Z,1.90
2023-03-30T23:49:11.707Z,2.00
2023-03-30T23:51:41.170Z,1.80
2023-03-30T23:54:10.776Z,2.30
2023-03-30T23:56:42.920Z,2.00
2023-03-30T23:59:12.272Z,2.00
